sensor_id;sensor_type;location;lat;lon;timestamp;pressure;altitude;pressure_sealevel;temperature;humidity
65276;BME280;51875;49.994;14.052;2023-07-13T00:00:49;97964.97;;;21.92;72.41
65276;BME280;51875;49.994;14.052;2023-07-13T00:02:25;97963.88;;;21.95;69.87
65276;BME280;51875;49.994;14.052;2023-07-13T00:03:42;97963.09;;;21.71;71.59
65276;BME280;51875;49.994;14.052;2023-07-13T00:04:57;97966.16;;;21.67;72.51
65276;BME280;51875;49.994;14.052;2023-07-13T00:06:13;97968.56;;;21.70;72.15
65276;BME280;51875;49.994;14.052;2023-07-13T00:07:28;97957.00;;;21.81;72.00
65276;BME280;51875;49.994;14.052;2023-07-13T00:08:44;97966.22;;;21.88;71.88
65276;BME280;51875;49.994;14.052;2023-07-13T00:09:59;97958.25;;;21.77;73.27
65276;BME280;51875;49.994;14.052;2023-07-13T00:11:15;97965.63;;;21.84;72.40
65276;BME280;51875;49.994;14.052;2023-07-13T00:12:32;97958.25;;;21.77;71.66
65276;BME280;51875;49.994;14.052;2023-07-13T00:13:47;97946.53;;;21.68;71.27
65276;BME280;51875;49.994;14.052;2023-07-13T00:15:13;97952.22;;;21.52;71.53
65276;BME280;51875;49.994;14.052;2023-07-13T00:16:29;97956.94;;;21.59;71.98
65276;BME280;51875;49.994;14.052;2023-07-13T00:17:44;97949.91;;;21.70;72.74
65276;BME280;51875;49.994;14.052;2023-07-13T00:19:00;97943.09;;;21.77;72.30
65276;BME280;51875;49.994;14.052;2023-07-13T00:20:15;97947.00;;;21.62;73.26
65276;BME280;51875;49.994;14.052;2023-07-13T00:21:31;97945.03;;;21.75;73.90
65276;BME280;51875;49.994;14.052;2023-07-13T00:22:47;97944.94;;;21.65;76.51
65276;BME280;51875;49.994;14.052;2023-07-13T00:24:03;97953.09;;;21.52;76.80
65276;BME280;51875;49.994;14.052;2023-07-13T00:25:19;97946.66;;;21.66;77.35
65276;BME280;51875;49.994;14.052;2023-07-13T00:26:34;97948.47;;;21.54;77.27
65276;BME280;51875;49.994;14.052;2023-07-13T00:27:50;97945.31;;;21.49;77.83
65276;BME280;51875;49.994;14.052;2023-07-13T00:29:06;97944.31;;;21.62;78.89
65276;BME280;51875;49.994;14.052;2023-07-13T00:30:24;97948.94;;;21.59;78.86
65276;BME280;51875;49.994;14.052;2023-07-13T00:31:39;97945.56;;;21.46;78.85
65276;BME280;51875;49.994;14.052;2023-07-13T00:32:55;97943.19;;;21.31;83.50
65276;BME280;51875;49.994;14.052;2023-07-13T00:34:10;97937.84;;;21.31;83.97
65276;BME280;51875;49.994;14.052;2023-07-13T00:35:26;97938.56;;;21.45;80.28
65276;BME280;51875;49.994;14.052;2023-07-13T00:36:41;97936.97;;;21.54;80.34
65276;BME280;51875;49.994;14.052;2023-07-13T00:37:57;97935.97;;;21.55;80.13
65276;BME280;51875;49.994;14.052;2023-07-13T00:39:12;97927.88;;;21.56;79.94
65276;BME280;51875;49.994;14.052;2023-07-13T00:40:27;97930.66;;;21.55;77.78
65276;BME280;51875;49.994;14.052;2023-07-13T00:41:43;97929.69;;;21.56;79.44
65276;BME280;51875;49.994;14.052;2023-07-13T00:42:59;97928.38;;;21.50;80.34
65276;BME280;51875;49.994;14.052;2023-07-13T00:44:15;97935.19;;;21.31;79.52
65276;BME280;51875;49.994;14.052;2023-07-13T00:46:46;97927.47;;;21.28;83.53
65276;BME280;51875;49.994;14.052;2023-07-13T00:48:02;97914.34;;;21.37;80.67
65276;BME280;51875;49.994;14.052;2023-07-13T00:49:19;97918.75;;;21.38;84.23
65276;BME280;51875;49.994;14.052;2023-07-13T00:50:35;97913.91;;;21.31;83.88
65276;BME280;51875;49.994;14.052;2023-07-13T00:51:55;97907.50;;;21.11;85.85
65276;BME280;51875;49.994;14.052;2023-07-13T00:53:11;97911.50;;;20.94;88.75
65276;BME280;51875;49.994;14.052;2023-07-13T00:54:30;97906.56;;;21.01;88.59
65276;BME280;51875;49.994;14.052;2023-07-13T00:55:48;97919.34;;;21.30;87.41
65276;BME280;51875;49.994;14.052;2023-07-13T00:57:04;97918.59;;;21.39;87.97
65276;BME280;51875;49.994;14.052;2023-07-13T00:58:21;97921.41;;;21.38;88.42
65276;BME280;51875;49.994;14.052;2023-07-13T00:59:36;97915.31;;;21.47;86.22
65276;BME280;51875;49.994;14.052;2023-07-13T01:00:55;97913.75;;;21.44;85.54
65276;BME280;51875;49.994;14.052;2023-07-13T01:02:11;97925.47;;;21.53;86.12
65276;BME280;51875;49.994;14.052;2023-07-13T01:03:27;97920.88;;;21.55;85.99
65276;BME280;51875;49.994;14.052;2023-07-13T01:04:42;97917.97;;;21.47;85.64
65276;BME280;51875;49.994;14.052;2023-07-13T01:05:59;97925.34;;;21.55;83.54
65276;BME280;51875;49.994;14.052;2023-07-13T01:07:15;97930.41;;;21.58;84.49
65276;BME280;51875;49.994;14.052;2023-07-13T01:08:31;97925.97;;;21.47;84.13
65276;BME280;51875;49.994;14.052;2023-07-13T01:09:46;97924.63;;;21.41;87.10
65276;BME280;51875;49.994;14.052;2023-07-13T01:11:02;97920.88;;;21.44;86.59
65276;BME280;51875;49.994;14.052;2023-07-13T01:12:17;97914.56;;;21.56;84.92
65276;BME280;51875;49.994;14.052;2023-07-13T01:13:33;97912.28;;;21.52;81.97
65276;BME280;51875;49.994;14.052;2023-07-13T01:14:48;97916.28;;;21.46;81.81
65276;BME280;51875;49.994;14.052;2023-07-13T01:16:05;97913.63;;;21.46;84.29
65276;BME280;51875;49.994;14.052;2023-07-13T01:17:27;97909.72;;;21.50;83.03
65276;BME280;51875;49.994;14.052;2023-07-13T01:18:43;97918.19;;;21.55;81.41
65276;BME280;51875;49.994;14.052;2023-07-13T01:19:58;97908.44;;;21.44;83.27
65276;BME280;51875;49.994;14.052;2023-07-13T01:21:14;97905.91;;;21.31;83.55
65276;BME280;51875;49.994;14.052;2023-07-13T01:22:29;97901.16;;;21.47;82.69
65276;BME280;51875;49.994;14.052;2023-07-13T01:23:47;97902.53;;;21.29;84.25
65276;BME280;51875;49.994;14.052;2023-07-13T01:25:03;97901.03;;;21.37;84.60
65276;BME280;51875;49.994;14.052;2023-07-13T01:26:18;97901.72;;;21.50;85.03
65276;BME280;51875;49.994;14.052;2023-07-13T01:27:34;97894.97;;;21.46;86.21
65276;BME280;51875;49.994;14.052;2023-07-13T01:28:49;97896.56;;;21.37;87.01
65276;BME280;51875;49.994;14.052;2023-07-13T01:30:05;97903.75;;;21.25;86.30
65276;BME280;51875;49.994;14.052;2023-07-13T01:31:20;97907.84;;;21.29;85.92
65276;BME280;51875;49.994;14.052;2023-07-13T01:32:36;97905.56;;;21.25;89.09
65276;BME280;51875;49.994;14.052;2023-07-13T01:33:52;97906.38;;;21.37;86.61
65276;BME280;51875;49.994;14.052;2023-07-13T01:35:07;97908.44;;;21.44;84.51
65276;BME280;51875;49.994;14.052;2023-07-13T01:36:22;97906.84;;;21.42;85.54
65276;BME280;51875;49.994;14.052;2023-07-13T01:37:38;97906.84;;;21.42;84.92
65276;BME280;51875;49.994;14.052;2023-07-13T01:38:53;97900.38;;;21.23;87.41
65276;BME280;51875;49.994;14.052;2023-07-13T01:40:09;97900.75;;;21.07;91.92
65276;BME280;51875;49.994;14.052;2023-07-13T01:41:24;97904.38;;;21.17;98.52
65276;BME280;51875;49.994;14.052;2023-07-13T01:42:40;97901.78;;;21.39;100.00
65276;BME280;51875;49.994;14.052;2023-07-13T01:43:55;97902.94;;;21.57;97.66
65276;BME280;51875;49.994;14.052;2023-07-13T01:45:10;97901.25;;;21.56;94.38
65276;BME280;51875;49.994;14.052;2023-07-13T01:46:26;97912.66;;;21.36;91.92
65276;BME280;51875;49.994;14.052;2023-07-13T01:47:41;97910.28;;;21.21;95.17
65276;BME280;51875;49.994;14.052;2023-07-13T01:48:57;97898.97;;;21.40;99.29
65276;BME280;51875;49.994;14.052;2023-07-13T01:50:12;97904.31;;;21.40;100.00
65276;BME280;51875;49.994;14.052;2023-07-13T01:51:27;97911.59;;;21.27;100.00
65276;BME280;51875;49.994;14.052;2023-07-13T01:52:43;97908.59;;;21.20;100.00
65276;BME280;51875;49.994;14.052;2023-07-13T01:53:58;97905.44;;;21.26;100.00
65276;BME280;51875;49.994;14.052;2023-07-13T01:55:13;97913.69;;;21.23;100.00
65276;BME280;51875;49.994;14.052;2023-07-13T01:56:29;97912.72;;;21.13;100.00
65276;BME280;51875;49.994;14.052;2023-07-13T01:57:44;97918.66;;;21.16;100.00
65276;BME280;51875;49.994;14.052;2023-07-13T01:59:00;97917.59;;;20.96;100.00
65276;BME280;51875;49.994;14.052;2023-07-13T02:00:15;97916.84;;;20.94;100.00
65276;BME280;51875;49.994;14.052;2023-07-13T02:01:31;97916.13;;;20.92;100.00
65276;BME280;51875;49.994;14.052;2023-07-13T02:02:46;97909.00;;;21.04;100.00
65276;BME280;51875;49.994;14.052;2023-07-13T02:04:02;97916.59;;;21.09;100.00
65276;BME280;51875;49.994;14.052;2023-07-13T02:05:17;97913.81;;;20.99;100.00
65276;BME280;51875;49.994;14.052;2023-07-13T02:06:33;97913.69;;;21.00;100.00
65276;BME280;51875;49.994;14.052;2023-07-13T02:07:48;97913.69;;;21.12;100.00
65276;BME280;51875;49.994;14.052;2023-07-13T02:09:04;97911.03;;;21.12;100.00
65276;BME280;51875;49.994;14.052;2023-07-13T02:10:19;97914.16;;;21.17;100.00
65276;BME280;51875;49.994;14.052;2023-07-13T02:11:35;97915.84;;;21.18;100.00
65276;BME280;51875;49.994;14.052;2023-07-13T02:12:50;97921.91;;;21.20;100.00
65276;BME280;51875;49.994;14.052;2023-07-13T02:14:05;97918.25;;;21.21;100.00
65276;BME280;51875;49.994;14.052;2023-07-13T02:15:21;97922.88;;;21.19;100.00
65276;BME280;51875;49.994;14.052;2023-07-13T02:16:36;97909.19;;;21.12;100.00
65276;BME280;51875;49.994;14.052;2023-07-13T02:17:52;97908.13;;;21.15;100.00
65276;BME280;51875;49.994;14.052;2023-07-13T02:19:07;97907.03;;;21.17;100.00
65276;BME280;51875;49.994;14.052;2023-07-13T02:20:23;97916.22;;;21.25;100.00
65276;BME280;51875;49.994;14.052;2023-07-13T02:21:38;97920.69;;;21.24;100.00
65276;BME280;51875;49.994;14.052;2023-07-13T02:22:53;97914.16;;;21.17;100.00
65276;BME280;51875;49.994;14.052;2023-07-13T02:24:09;97917.06;;;21.25;100.00
65276;BME280;51875;49.994;14.052;2023-07-13T02:25:24;97919.72;;;21.25;100.00
65276;BME280;51875;49.994;14.052;2023-07-13T02:26:41;97913.44;;;21.03;100.00
65276;BME280;51875;49.994;14.052;2023-07-13T02:27:57;97919.00;;;21.23;100.00
65276;BME280;51875;49.994;14.052;2023-07-13T02:29:12;97915.03;;;21.17;100.00
65276;BME280;51875;49.994;14.052;2023-07-13T02:30:27;97921.53;;;21.13;100.00
65276;BME280;51875;49.994;14.052;2023-07-13T02:31:44;97920.59;;;21.03;100.00
65276;BME280;51875;49.994;14.052;2023-07-13T02:33:00;97919.03;;;21.00;100.00
65276;BME280;51875;49.994;14.052;2023-07-13T02:34:15;97930.03;;;20.96;100.00
65276;BME280;51875;49.994;14.052;2023-07-13T02:35:31;97937.16;;;21.07;100.00
65276;BME280;51875;49.994;14.052;2023-07-13T02:36:46;97936.31;;;21.17;100.00
65276;BME280;51875;49.994;14.052;2023-07-13T02:38:01;97938.13;;;21.28;100.00
65276;BME280;51875;49.994;14.052;2023-07-13T02:39:17;97935.81;;;21.35;100.00
65276;BME280;51875;49.994;14.052;2023-07-13T02:40:32;97939.69;;;21.31;100.00
65276;BME280;51875;49.994;14.052;2023-07-13T02:41:51;97943.19;;;21.31;100.00
65276;BME280;51875;49.994;14.052;2023-07-13T02:43:06;97944.03;;;21.32;100.00
65276;BME280;51875;49.994;14.052;2023-07-13T02:44:21;97951.53;;;21.38;100.00
65276;BME280;51875;49.994;14.052;2023-07-13T02:45:37;97940.50;;;21.43;100.00
65276;BME280;51875;49.994;14.052;2023-07-13T02:46:52;97941.94;;;21.47;100.00
65276;BME280;51875;49.994;14.052;2023-07-13T02:48:08;97944.69;;;21.57;100.00
65276;BME280;51875;49.994;14.052;2023-07-13T02:49:23;97942.63;;;21.61;100.00
65276;BME280;51875;49.994;14.052;2023-07-13T02:50:38;97947.25;;;21.70;100.00
65276;BME280;51875;49.994;14.052;2023-07-13T02:51:54;97946.44;;;21.91;100.00
65276;BME280;51875;49.994;14.052;2023-07-13T02:53:09;97942.56;;;21.95;100.00
65276;BME280;51875;49.994;14.052;2023-07-13T02:54:24;97948.59;;;21.97;100.00
65276;BME280;51875;49.994;14.052;2023-07-13T02:55:40;97947.50;;;21.99;100.00
65276;BME280;51875;49.994;14.052;2023-07-13T02:56:55;97951.38;;;21.95;100.00
65276;BME280;51875;49.994;14.052;2023-07-13T02:58:11;97953.69;;;22.00;100.00
65276;BME280;51875;49.994;14.052;2023-07-13T02:59:26;97954.38;;;22.02;100.00
65276;BME280;51875;49.994;14.052;2023-07-13T03:00:42;97960.59;;;22.03;100.00
65276;BME280;51875;49.994;14.052;2023-07-13T03:01:58;97954.88;;;21.75;100.00
65276;BME280;51875;49.994;14.052;2023-07-13T03:03:14;97963.69;;;21.75;100.00
65276;BME280;51875;49.994;14.052;2023-07-13T03:04:29;97962.66;;;21.99;100.00
65276;BME280;51875;49.994;14.052;2023-07-13T03:05:45;97946.19;;;21.94;100.00
65276;BME280;51875;49.994;14.052;2023-07-13T03:07:05;97953.41;;;22.03;100.00
65276;BME280;51875;49.994;14.052;2023-07-13T03:08:20;97939.38;;;22.01;100.00
65276;BME280;51875;49.994;14.052;2023-07-13T03:09:35;97943.00;;;22.00;100.00
65276;BME280;51875;49.994;14.052;2023-07-13T03:11:01;97938.97;;;21.84;100.00
65276;BME280;51875;49.994;14.052;2023-07-13T03:12:16;97946.34;;;21.81;100.00
65276;BME280;51875;49.994;14.052;2023-07-13T03:13:32;97937.75;;;21.77;100.00
65276;BME280;51875;49.994;14.052;2023-07-13T03:14:47;97945.91;;;21.76;100.00
65276;BME280;51875;49.994;14.052;2023-07-13T03:16:03;97939.59;;;21.65;100.00
65276;BME280;51875;49.994;14.052;2023-07-13T03:17:18;97943.69;;;21.81;100.00
65276;BME280;51875;49.994;14.052;2023-07-13T03:18:34;97944.16;;;21.86;100.00
65276;BME280;51875;49.994;14.052;2023-07-13T03:19:50;97942.56;;;21.95;100.00
65276;BME280;51875;49.994;14.052;2023-07-13T03:21:06;97941.63;;;21.84;100.00
65276;BME280;51875;49.994;14.052;2023-07-13T03:22:22;97950.72;;;21.82;100.00
65276;BME280;51875;49.994;14.052;2023-07-13T03:23:37;97950.00;;;21.80;100.00
65276;BME280;51875;49.994;14.052;2023-07-13T03:24:52;97951.22;;;21.76;100.00
65276;BME280;51875;49.994;14.052;2023-07-13T03:26:11;97953.91;;;21.76;100.00
65276;BME280;51875;49.994;14.052;2023-07-13T03:27:27;97954.28;;;21.71;100.00
65276;BME280;51875;49.994;14.052;2023-07-13T03:28:43;97957.28;;;21.78;100.00
65276;BME280;51875;49.994;14.052;2023-07-13T03:29:58;97966.88;;;21.69;100.00
65276;BME280;51875;49.994;14.052;2023-07-13T03:31:18;97961.03;;;21.75;100.00
65276;BME280;51875;49.994;14.052;2023-07-13T03:32:33;97975.31;;;21.63;100.00
65276;BME280;51875;49.994;14.052;2023-07-13T03:33:49;97973.66;;;21.50;100.00
65276;BME280;51875;49.994;14.052;2023-07-13T03:35:05;97978.34;;;21.69;100.00
65276;BME280;51875;49.994;14.052;2023-07-13T03:36:21;97988.88;;;21.59;100.00
65276;BME280;51875;49.994;14.052;2023-07-13T03:37:37;97984.66;;;21.57;100.00
65276;BME280;51875;49.994;14.052;2023-07-13T03:38:58;97985.88;;;21.53;100.00
65276;BME280;51875;49.994;14.052;2023-07-13T03:40:14;97986.84;;;21.63;100.00
65276;BME280;51875;49.994;14.052;2023-07-13T03:41:29;97982.22;;;21.65;100.00
65276;BME280;51875;49.994;14.052;2023-07-13T03:42:47;97985.50;;;21.57;100.00
65276;BME280;51875;49.994;14.052;2023-07-13T03:44:02;97991.72;;;21.47;100.00
65276;BME280;51875;49.994;14.052;2023-07-13T03:45:18;97994.94;;;21.50;100.00
65276;BME280;51875;49.994;14.052;2023-07-13T03:46:34;98005.84;;;21.58;100.00
65276;BME280;51875;49.994;14.052;2023-07-13T03:47:49;97999.19;;;21.53;100.00
65276;BME280;51875;49.994;14.052;2023-07-13T03:49:05;98015.41;;;21.61;100.00
65276;BME280;51875;49.994;14.052;2023-07-13T03:50:21;98008.25;;;21.62;100.00
65276;BME280;51875;49.994;14.052;2023-07-13T03:51:36;98006.56;;;21.72;100.00
65276;BME280;51875;49.994;14.052;2023-07-13T03:52:51;98010.47;;;21.68;100.00
65276;BME280;51875;49.994;14.052;2023-07-13T03:54:07;98012.03;;;21.70;100.00
65276;BME280;51875;49.994;14.052;2023-07-13T03:55:22;98013.59;;;21.62;100.00
65276;BME280;51875;49.994;14.052;2023-07-13T03:56:38;98013.22;;;21.55;100.00
65276;BME280;51875;49.994;14.052;2023-07-13T03:57:57;98019.66;;;21.52;100.00
65276;BME280;51875;49.994;14.052;2023-07-13T03:59:13;98021.38;;;21.53;100.00
65276;BME280;51875;49.994;14.052;2023-07-13T04:00:28;98016.75;;;21.55;100.00
65276;BME280;51875;49.994;14.052;2023-07-13T04:01:44;98024.38;;;21.60;100.00
65276;BME280;51875;49.994;14.052;2023-07-13T04:03:00;98015.78;;;21.56;100.00
65276;BME280;51875;49.994;14.052;2023-07-13T04:04:15;98019.78;;;21.51;100.00
65276;BME280;51875;49.994;14.052;2023-07-13T04:05:31;98019.78;;;21.39;100.00
65276;BME280;51875;49.994;14.052;2023-07-13T04:06:46;98023.31;;;21.51;100.00
65276;BME280;51875;49.994;14.052;2023-07-13T04:08:01;98027.78;;;21.28;100.00
65276;BME280;51875;49.994;14.052;2023-07-13T04:09:17;98025.47;;;21.46;100.00
65276;BME280;51875;49.994;14.052;2023-07-13T04:10:34;98030.69;;;21.13;100.00
65276;BME280;51875;49.994;14.052;2023-07-13T04:11:49;98024.28;;;21.16;100.00
65276;BME280;51875;49.994;14.052;2023-07-13T04:13:05;98023.66;;;21.01;100.00
65276;BME280;51875;49.994;14.052;2023-07-13T04:14:20;98029.94;;;21.00;100.00
65276;BME280;51875;49.994;14.052;2023-07-13T04:15:36;98030.94;;;21.33;100.00
65276;BME280;51875;49.994;14.052;2023-07-13T04:16:51;98032.28;;;21.27;100.00
65276;BME280;51875;49.994;14.052;2023-07-13T04:18:06;98030.06;;;21.33;100.00
65276;BME280;51875;49.994;14.052;2023-07-13T04:19:22;98026.81;;;21.29;100.00
65276;BME280;51875;49.994;14.052;2023-07-13T04:20:37;98032.03;;;21.30;100.00
65276;BME280;51875;49.994;14.052;2023-07-13T04:21:53;98034.22;;;21.25;100.00
65276;BME280;51875;49.994;14.052;2023-07-13T04:23:08;98029.59;;;21.16;100.00
65276;BME280;51875;49.994;14.052;2023-07-13T04:24:24;98026.91;;;21.05;100.00
65276;BME280;51875;49.994;14.052;2023-07-13T04:25:42;98033.47;;;21.00;100.00
65276;BME280;51875;49.994;14.052;2023-07-13T04:26:59;98037.78;;;20.90;100.00
65276;BME280;51875;49.994;14.052;2023-07-13T04:28:15;98029.47;;;20.95;100.00
65276;BME280;51875;49.994;14.052;2023-07-13T04:29:32;98039.25;;;20.94;100.00
65276;BME280;51875;49.994;14.052;2023-07-13T04:30:48;98026.31;;;20.90;100.00
65276;BME280;51875;49.994;14.052;2023-07-13T04:32:04;98032.13;;;20.95;100.00
65276;BME280;51875;49.994;14.052;2023-07-13T04:33:19;98026.78;;;20.83;100.00
65276;BME280;51875;49.994;14.052;2023-07-13T04:34:37;98029.34;;;20.96;100.00
65276;BME280;51875;49.994;14.052;2023-07-13T04:35:54;98020.88;;;21.02;100.00
65276;BME280;51875;49.994;14.052;2023-07-13T04:37:11;98029.94;;;21.11;100.00
65276;BME280;51875;49.994;14.052;2023-07-13T04:38:27;98032.63;;;21.23;100.00
65276;BME280;51875;49.994;14.052;2023-07-13T04:39:43;98034.19;;;21.37;99.46
65276;BME280;51875;49.994;14.052;2023-07-13T04:41:00;98026.94;;;21.27;100.00
65276;BME280;51875;49.994;14.052;2023-07-13T04:42:16;98034.06;;;21.15;100.00
65276;BME280;51875;49.994;14.052;2023-07-13T04:43:31;98040.00;;;21.19;100.00
65276;BME280;51875;49.994;14.052;2023-07-13T04:44:48;98041.47;;;21.23;100.00
65276;BME280;51875;49.994;14.052;2023-07-13T04:46:05;98051.38;;;21.10;100.00
65276;BME280;51875;49.994;14.052;2023-07-13T04:47:20;98048.84;;;21.31;98.39
65276;BME280;51875;49.994;14.052;2023-07-13T04:48:36;98043.91;;;21.38;99.16
65276;BME280;51875;49.994;14.052;2023-07-13T04:49:51;98043.16;;;21.13;100.00
65276;BME280;51875;49.994;14.052;2023-07-13T04:51:07;98045.78;;;21.01;100.00
65276;BME280;51875;49.994;14.052;2023-07-13T04:52:22;98052.78;;;20.91;100.00
65276;BME280;51875;49.994;14.052;2023-07-13T04:53:37;98057.28;;;21.02;100.00
65276;BME280;51875;49.994;14.052;2023-07-13T04:54:53;98060.09;;;21.12;99.29
65276;BME280;51875;49.994;14.052;2023-07-13T04:56:08;98061.06;;;21.11;99.75
65276;BME280;51875;49.994;14.052;2023-07-13T04:57:24;98070.25;;;21.18;100.00
65276;BME280;51875;49.994;14.052;2023-07-13T04:58:39;98069.16;;;21.21;98.31
65276;BME280;51875;49.994;14.052;2023-07-13T04:59:55;98075.47;;;21.31;97.44
65276;BME280;51875;49.994;14.052;2023-07-13T05:01:11;98075.84;;;21.38;95.40
65276;BME280;51875;49.994;14.052;2023-07-13T05:02:26;98077.03;;;21.45;93.00
65276;BME280;51875;49.994;14.052;2023-07-13T05:03:43;98080.91;;;21.29;93.69
65276;BME280;51875;49.994;14.052;2023-07-13T05:04:59;98087.44;;;21.37;88.39
65276;BME280;51875;49.994;14.052;2023-07-13T05:06:14;98088.03;;;21.29;83.69
65276;BME280;51875;49.994;14.052;2023-07-13T05:07:29;98077.63;;;21.26;82.37
65276;BME280;51875;49.994;14.052;2023-07-13T05:08:45;98077.03;;;21.11;84.93
65276;BME280;51875;49.994;14.052;2023-07-13T05:10:00;98070.75;;;21.23;78.49
65276;BME280;51875;49.994;14.052;2023-07-13T05:11:18;98076.56;;;21.28;78.56
65276;BME280;51875;49.994;14.052;2023-07-13T05:12:33;98073.16;;;21.26;77.84
65276;BME280;51875;49.994;14.052;2023-07-13T05:13:48;98079.56;;;21.24;76.38
65276;BME280;51875;49.994;14.052;2023-07-13T05:15:04;98082.72;;;21.17;74.85
65276;BME280;51875;49.994;14.052;2023-07-13T05:16:20;98077.03;;;21.11;76.73
65276;BME280;51875;49.994;14.052;2023-07-13T05:17:35;98074.81;;;21.05;76.90
65276;BME280;51875;49.994;14.052;2023-07-13T05:18:50;98081.16;;;21.15;74.03
65276;BME280;51875;49.994;14.052;2023-07-13T05:20:07;98079.81;;;21.21;75.61
65276;BME280;51875;49.994;14.052;2023-07-13T05:21:23;98084.78;;;21.14;76.34
65276;BME280;51875;49.994;14.052;2023-07-13T05:22:38;98085.38;;;21.29;74.03
65276;BME280;51875;49.994;14.052;2023-07-13T05:23:54;98088.06;;;21.17;73.05
65276;BME280;51875;49.994;14.052;2023-07-13T05:25:09;98085.75;;;21.24;72.21
65276;BME280;51875;49.994;14.052;2023-07-13T05:26:25;98093.50;;;21.39;72.61
65276;BME280;51875;49.994;14.052;2023-07-13T05:27:40;98093.28;;;21.42;71.20
65276;BME280;51875;49.994;14.052;2023-07-13T05:28:56;98096.19;;;21.39;68.66
65276;BME280;51875;49.994;14.052;2023-07-13T05:30:11;98096.19;;;21.39;67.72
65276;BME280;51875;49.994;14.052;2023-07-13T05:31:27;98093.50;;;21.39;67.37
65276;BME280;51875;49.994;14.052;2023-07-13T05:32:43;98090.34;;;21.45;68.03
65276;BME280;51875;49.994;14.052;2023-07-13T05:33:58;98096.66;;;21.55;66.69
65276;BME280;51875;49.994;14.052;2023-07-13T05:35:14;98096.31;;;21.60;66.92
65276;BME280;51875;49.994;14.052;2023-07-13T05:36:29;98090.72;;;21.63;66.07
65276;BME280;51875;49.994;14.052;2023-07-13T05:37:45;98094.88;;;21.67;67.16
65276;BME280;51875;49.994;14.052;2023-07-13T05:39:00;98108.53;;;21.51;67.95
65276;BME280;51875;49.994;14.052;2023-07-13T05:40:15;98101.28;;;21.53;68.55
65276;BME280;51875;49.994;14.052;2023-07-13T05:41:31;98110.19;;;21.64;65.69
65276;BME280;51875;49.994;14.052;2023-07-13T05:42:46;98110.97;;;21.77;65.88
65276;BME280;51875;49.994;14.052;2023-07-13T05:44:02;98102.25;;;21.86;65.29
65276;BME280;51875;49.994;14.052;2023-07-13T05:45:17;98105.41;;;21.69;66.91
65276;BME280;51875;49.994;14.052;2023-07-13T05:46:32;98106.25;;;21.69;66.05
65276;BME280;51875;49.994;14.052;2023-07-13T05:47:48;98105.88;;;21.85;65.28
65276;BME280;51875;49.994;14.052;2023-07-13T05:49:03;98108.19;;;21.79;66.27
65276;BME280;51875;49.994;14.052;2023-07-13T05:50:18;98103.09;;;21.87;65.81
65276;BME280;51875;49.994;14.052;2023-07-13T05:51:34;98102.25;;;21.86;65.67
65276;BME280;51875;49.994;14.052;2023-07-13T05:52:49;98101.16;;;21.89;65.04
65276;BME280;51875;49.994;14.052;2023-07-13T05:54:06;98098.94;;;21.94;63.74
65276;BME280;51875;49.994;14.052;2023-07-13T05:55:21;98102.75;;;21.80;64.15
65276;BME280;51875;49.994;14.052;2023-07-13T05:56:36;98104.03;;;21.86;65.45
65276;BME280;51875;49.994;14.052;2023-07-13T05:57:52;98102.94;;;21.89;64.71
65276;BME280;51875;49.994;14.052;2023-07-13T05:59:07;98105.25;;;21.82;64.55
65276;BME280;51875;49.994;14.052;2023-07-13T06:00:23;98105.38;;;21.92;64.10
65276;BME280;51875;49.994;14.052;2023-07-13T06:01:39;98103.47;;;21.82;63.75
65276;BME280;51875;49.994;14.052;2023-07-13T06:02:55;98101.97;;;21.90;63.34
65276;BME280;51875;49.994;14.052;2023-07-13T06:04:11;98098.59;;;21.87;63.59
65276;BME280;51875;49.994;14.052;2023-07-13T06:05:26;98099.56;;;21.98;62.61
65276;BME280;51875;49.994;14.052;2023-07-13T06:06:44;98100.66;;;21.95;62.92
65276;BME280;51875;49.994;14.052;2023-07-13T06:07:59;98096.63;;;22.01;63.76
65276;BME280;51875;49.994;14.052;2023-07-13T06:09:15;98102.84;;;22.01;63.64
65276;BME280;51875;49.994;14.052;2023-07-13T06:10:34;98104.63;;;22.01;63.86
65276;BME280;51875;49.994;14.052;2023-07-13T06:11:49;98099.56;;;21.98;63.83
65276;BME280;51875;49.994;14.052;2023-07-13T06:13:05;98103.56;;;22.04;64.17
65276;BME280;51875;49.994;14.052;2023-07-13T06:14:20;98107.47;;;22.32;62.83
65276;BME280;51875;49.994;14.052;2023-07-13T06:15:35;98110.34;;;22.52;62.69
65276;BME280;51875;49.994;14.052;2023-07-13T06:16:51;98105.81;;;22.64;62.11
65276;BME280;51875;49.994;14.052;2023-07-13T06:18:06;98108.94;;;22.69;61.22
65276;BME280;51875;49.994;14.052;2023-07-13T06:19:22;98112.84;;;22.86;59.86
65276;BME280;51875;49.994;14.052;2023-07-13T06:20:37;98110.66;;;22.91;58.83
65276;BME280;51875;49.994;14.052;2023-07-13T06:21:52;98108.06;;;23.01;59.13
65276;BME280;51875;49.994;14.052;2023-07-13T06:23:08;98114.75;;;22.74;60.17
65276;BME280;51875;49.994;14.052;2023-07-13T06:24:24;98109.91;;;22.89;59.95
65276;BME280;51875;49.994;14.052;2023-07-13T06:25:40;98117.03;;;22.79;59.89
65276;BME280;51875;49.994;14.052;2023-07-13T06:26:55;98115.47;;;22.76;60.97
65276;BME280;51875;49.994;14.052;2023-07-13T06:28:11;98121.13;;;22.83;59.25
65276;BME280;51875;49.994;14.052;2023-07-13T06:29:26;98118.53;;;22.93;59.64
65276;BME280;51875;49.994;14.052;2023-07-13T06:30:41;98117.69;;;23.13;59.50
65276;BME280;51875;49.994;14.052;2023-07-13T06:31:57;98119.31;;;23.26;58.00
65276;BME280;51875;49.994;14.052;2023-07-13T06:33:12;98113.59;;;23.31;58.02
65276;BME280;51875;49.994;14.052;2023-07-13T06:34:28;98117.81;;;23.33;57.01
65276;BME280;51875;49.994;14.052;2023-07-13T06:35:43;98121.78;;;23.39;56.54